sensor_id;sensor_type;location;lat;lon;timestamp;noise_LAeq;noise_LA_min;noise_LA_max;noise_LA01;noise_LA95
47109;Laerm;32856;51.422;6.794;2023-08-06T00:00:20;56.32;46.96;72.93;;
47109;Laerm;32856;51.422;6.794;2023-08-06T00:02:47;56.25;46.28;75.02;;
47109;Laerm;32856;51.422;6.794;2023-08-06T00:05:15;58.00;45.27;75.32;;
47109;Laerm;32856;51.422;6.794;2023-08-06T00:07:44;53.57;44.07;71.04;;
47109;Laerm;32856;51.422;6.794;2023-08-06T00:10:11;59.66;44.80;77.21;;
47109;Laerm;32856;51.422;6.794;2023-08-06T00:12:38;58.17;46.73;75.81;;
47109;Laerm;32856;51.422;6.794;2023-08-06T00:15:06;49.92;46.40;61.73;;
47109;Laerm;32856;51.422;6.794;2023-08-06T00:17:35;57.14;45.51;73.68;;
47109;Laerm;32856;51.422;6.794;2023-08-06T00:20:03;49.55;45.80;54.36;;
47109;Laerm;32856;51.422;6.794;2023-08-06T00:22:32;49.40;43.77;55.60;;
47109;Laerm;32856;51.422;6.794;2023-08-06T00:24:59;52.49;46.33;76.25;;
47109;Laerm;32856;51.422;6.794;2023-08-06T00:27:27;51.04;47.36;60.99;;
47109;Laerm;32856;51.422;6.794;2023-08-06T00:29:54;49.68;45.66;53.65;;
47109;Laerm;32856;51.422;6.794;2023-08-06T00:32:21;60.65;46.62;78.88;;
47109;Laerm;32856;51.422;6.794;2023-08-06T00:34:50;51.44;46.30;62.06;;
47109;Laerm;32856;51.422;6.794;2023-08-06T00:37:18;56.31;44.90;73.06;;
47109;Laerm;32856;51.422;6.794;2023-08-06T00:39:45;55.60;44.58;74.13;;
47109;Laerm;32856;51.422;6.794;2023-08-06T00:42:13;58.10;45.94;74.48;;
47109;Laerm;32856;51.422;6.794;2023-08-06T00:44:42;49.06;45.63;52.24;;
47109;Laerm;32856;51.422;6.794;2023-08-06T00:47:09;57.06;45.36;77.71;;
47109;Laerm;32856;51.422;6.794;2023-08-06T00:49:37;56.94;45.89;73.24;;
47109;Laerm;32856;51.422;6.794;2023-08-06T00:52:07;54.13;44.94;72.17;;
47109;Laerm;32856;51.422;6.794;2023-08-06T00:54:35;57.88;44.52;74.86;;
47109;Laerm;32856;51.422;6.794;2023-08-06T00:57:15;48.81;45.14;62.41;;
47109;Laerm;32856;51.422;6.794;2023-08-06T00:59:42;53.03;44.23;72.37;;
47109;Laerm;32856;51.422;6.794;2023-08-06T01:02:09;61.28;45.20;77.72;;
47109;Laerm;32856;51.422;6.794;2023-08-06T01:04:37;58.22;45.11;75.84;;
47109;Laerm;32856;51.422;6.794;2023-08-06T01:07:09;49.82;46.89;52.67;;
47109;Laerm;32856;51.422;6.794;2023-08-06T01:09:43;56.44;46.13;73.54;;
47109;Laerm;32856;51.422;6.794;2023-08-06T01:12:16;48.91;44.27;54.14;;
47109;Laerm;32856;51.422;6.794;2023-08-06T01:14:47;54.67;43.90;71.76;;
47109;Laerm;32856;51.422;6.794;2023-08-06T01:17:15;55.74;45.30;70.93;;
47109;Laerm;32856;51.422;6.794;2023-08-06T01:19:42;56.62;45.94;74.74;;
47109;Laerm;32856;51.422;6.794;2023-08-06T01:22:11;47.90;43.99;51.22;;
47109;Laerm;32856;51.422;6.794;2023-08-06T01:24:46;55.04;45.20;70.09;;
47109;Laerm;32856;51.422;6.794;2023-08-06T01:27:17;57.53;46.18;75.54;;
47109;Laerm;32856;51.422;6.794;2023-08-06T01:29:52;52.94;45.01;62.97;;
47109;Laerm;32856;51.422;6.794;2023-08-06T01:32:23;53.47;46.15;70.46;;
47109;Laerm;32856;51.422;6.794;2023-08-06T01:34:52;49.07;44.89;52.85;;
47109;Laerm;32856;51.422;6.794;2023-08-06T01:37:23;48.98;44.80;52.37;;
47109;Laerm;32856;51.422;6.794;2023-08-06T01:39:50;54.07;43.77;72.47;;
47109;Laerm;32856;51.422;6.794;2023-08-06T01:42:17;49.33;44.39;53.63;;
47109;Laerm;32856;51.422;6.794;2023-08-06T01:44:45;54.67;43.04;72.66;;
47109;Laerm;32856;51.422;6.794;2023-08-06T01:47:12;53.54;44.58;70.90;;
47109;Laerm;32856;51.422;6.794;2023-08-06T01:49:39;48.43;44.83;53.14;;
47109;Laerm;32856;51.422;6.794;2023-08-06T01:52:07;49.03;45.39;55.23;;
47109;Laerm;32856;51.422;6.794;2023-08-06T01:54:36;49.34;45.31;56.11;;
47109;Laerm;32856;51.422;6.794;2023-08-06T01:57:03;58.02;45.23;76.06;;
47109;Laerm;32856;51.422;6.794;2023-08-06T01:59:31;48.76;44.54;52.60;;
47109;Laerm;32856;51.422;6.794;2023-08-06T02:01:58;58.63;44.43;76.06;;
47109;Laerm;32856;51.422;6.794;2023-08-06T02:04:26;55.21;44.11;76.02;;
47109;Laerm;32856;51.422;6.794;2023-08-06T02:06:53;55.54;45.83;74.76;;
47109;Laerm;32856;51.422;6.794;2023-08-06T02:09:20;56.25;45.45;68.07;;
47109;Laerm;32856;51.422;6.794;2023-08-06T02:11:49;56.57;45.99;72.57;;
47109;Laerm;32856;51.422;6.794;2023-08-06T02:14:17;48.40;44.27;55.13;;
47109;Laerm;32856;51.422;6.794;2023-08-06T02:16:44;49.55;45.27;53.31;;
47109;Laerm;32856;51.422;6.794;2023-08-06T02:19:11;54.19;45.36;72.15;;
47109;Laerm;32856;51.422;6.794;2023-08-06T02:21:38;55.72;44.51;72.72;;
47109;Laerm;32856;51.422;6.794;2023-08-06T02:24:06;57.79;44.73;77.60;;
47109;Laerm;32856;51.422;6.794;2023-08-06T02:26:33;47.77;44.15;58.18;;
47109;Laerm;32856;51.422;6.794;2023-08-06T02:29:02;48.98;45.11;59.26;;
47109;Laerm;32856;51.422;6.794;2023-08-06T02:31:29;58.10;44.87;77.25;;
47109;Laerm;32856;51.422;6.794;2023-08-06T02:33:57;48.46;44.73;56.96;;
47109;Laerm;32856;51.422;6.794;2023-08-06T02:36:24;49.88;44.27;59.02;;
47109;Laerm;32856;51.422;6.794;2023-08-06T02:38:55;48.86;44.15;52.61;;
47109;Laerm;32856;51.422;6.794;2023-08-06T02:41:22;52.72;44.07;69.48;;
47109;Laerm;32856;51.422;6.794;2023-08-06T02:43:50;49.40;44.11;54.14;;
47109;Laerm;32856;51.422;6.794;2023-08-06T02:46:18;48.54;44.80;52.99;;
47109;Laerm;32856;51.422;6.794;2023-08-06T02:48:45;47.88;44.51;51.59;;
47109;Laerm;32856;51.422;6.794;2023-08-06T02:51:13;57.32;44.27;73.64;;
47109;Laerm;32856;51.422;6.794;2023-08-06T02:53:40;49.67;43.68;54.56;;
47109;Laerm;32856;51.422;6.794;2023-08-06T02:56:08;55.62;46.95;72.62;;
47109;Laerm;32856;51.422;6.794;2023-08-06T02:58:35;51.74;46.64;55.83;;
47109;Laerm;32856;51.422;6.794;2023-08-06T03:01:03;55.72;44.58;72.13;;
47109;Laerm;32856;51.422;6.794;2023-08-06T03:03:32;53.26;43.68;70.50;;
47109;Laerm;32856;51.422;6.794;2023-08-06T03:06:00;48.51;43.34;52.33;;
47109;Laerm;32856;51.422;6.794;2023-08-06T03:08:27;49.12;45.66;55.48;;
47109;Laerm;32856;51.422;6.794;2023-08-06T03:10:55;47.16;44.19;52.13;;
47109;Laerm;32856;51.422;6.794;2023-08-06T03:13:22;48.02;45.27;53.32;;
47109;Laerm;32856;51.422;6.794;2023-08-06T03:15:53;56.81;44.62;74.93;;
47109;Laerm;32856;51.422;6.794;2023-08-06T03:18:21;47.49;44.43;52.87;;
47109;Laerm;32856;51.422;6.794;2023-08-06T03:20:49;53.26;44.80;70.64;;
47109;Laerm;32856;51.422;6.794;2023-08-06T03:23:17;50.96;45.75;63.47;;
47109;Laerm;32856;51.422;6.794;2023-08-06T03:25:44;49.38;45.33;53.55;;
47109;Laerm;32856;51.422;6.794;2023-08-06T03:28:12;49.45;46.36;55.89;;
47109;Laerm;32856;51.422;6.794;2023-08-06T03:30:39;56.92;45.83;76.09;;
47109;Laerm;32856;51.422;6.794;2023-08-06T03:33:07;58.02;46.33;76.66;;
47109;Laerm;32856;51.422;6.794;2023-08-06T03:35:34;53.93;45.97;72.43;;
47109;Laerm;32856;51.422;6.794;2023-08-06T03:38:03;61.40;46.66;78.11;;
47109;Laerm;32856;51.422;6.794;2023-08-06T03:40:30;57.74;47.26;73.87;;
47109;Laerm;32856;51.422;6.794;2023-08-06T03:42:58;54.23;45.30;73.12;;
47109;Laerm;32856;51.422;6.794;2023-08-06T03:45:25;57.02;45.45;74.05;;
47109;Laerm;32856;51.422;6.794;2023-08-06T03:47:53;56.23;45.89;74.70;;
47109;Laerm;32856;51.422;6.794;2023-08-06T03:50:20;56.23;46.20;75.91;;
47109;Laerm;32856;51.422;6.794;2023-08-06T03:52:47;51.86;46.07;70.23;;
47109;Laerm;32856;51.422;6.794;2023-08-06T03:55:16;53.78;45.11;68.85;;
47109;Laerm;32856;51.422;6.794;2023-08-06T03:57:43;57.68;45.69;75.61;;
47109;Laerm;32856;51.422;6.794;2023-08-06T04:00:11;54.61;47.96;73.36;;
47109;Laerm;32856;51.422;6.794;2023-08-06T04:02:38;55.15;46.28;72.41;;
47109;Laerm;32856;51.422;6.794;2023-08-06T04:05:06;55.91;46.38;74.31;;
47109;Laerm;32856;51.422;6.794;2023-08-06T04:07:34;53.06;45.89;75.07;;
47109;Laerm;32856;51.422;6.794;2023-08-06T04:10:02;50.80;45.57;61.19;;
47109;Laerm;32856;51.422;6.794;2023-08-06T04:12:31;51.65;47.65;57.64;;
47109;Laerm;32856;51.422;6.794;2023-08-06T04:15:02;52.08;47.16;58.76;;
47109;Laerm;32856;51.422;6.794;2023-08-06T04:17:30;60.73;47.88;74.21;;
47109;Laerm;32856;51.422;6.794;2023-08-06T04:19:57;61.61;47.55;76.16;;
47109;Laerm;32856;51.422;6.794;2023-08-06T04:22:25;57.21;46.66;74.62;;
47109;Laerm;32856;51.422;6.794;2023-08-06T04:24:52;53.85;46.30;71.19;;
47109;Laerm;32856;51.422;6.794;2023-08-06T04:27:20;50.98;47.48;54.86;;
47109;Laerm;32856;51.422;6.794;2023-08-06T04:29:49;56.02;47.08;73.77;;
47109;Laerm;32856;51.422;6.794;2023-08-06T04:32:16;49.31;44.90;54.45;;
47109;Laerm;32856;51.422;6.794;2023-08-06T04:34:45;48.91;45.54;54.26;;
47109;Laerm;32856;51.422;6.794;2023-08-06T04:37:13;53.16;45.11;69.41;;
47109;Laerm;32856;51.422;6.794;2023-08-06T04:39:40;49.82;45.99;54.03;;
47109;Laerm;32856;51.422;6.794;2023-08-06T04:42:07;53.59;47.08;70.13;;
47109;Laerm;32856;51.422;6.794;2023-08-06T04:44:35;50.86;46.73;55.86;;
47109;Laerm;32856;51.422;6.794;2023-08-06T04:47:03;60.64;47.00;77.79;;
47109;Laerm;32856;51.422;6.794;2023-08-06T04:49:31;58.36;46.15;77.04;;
47109;Laerm;32856;51.422;6.794;2023-08-06T04:51:58;56.84;46.07;71.08;;
47109;Laerm;32856;51.422;6.794;2023-08-06T04:54:25;52.70;46.30;68.61;;
47109;Laerm;32856;51.422;6.794;2023-08-06T04:56:53;58.17;45.91;76.44;;
47109;Laerm;32856;51.422;6.794;2023-08-06T04:59:20;60.56;46.82;77.21;;
47109;Laerm;32856;51.422;6.794;2023-08-06T05:01:47;62.58;46.84;77.43;;
47109;Laerm;32856;51.422;6.794;2023-08-06T05:04:16;58.45;45.57;76.55;;
47109;Laerm;32856;51.422;6.794;2023-08-06T05:06:43;58.82;46.33;76.11;;
47109;Laerm;32856;51.422;6.794;2023-08-06T05:09:11;57.91;44.62;74.84;;
47109;Laerm;32856;51.422;6.794;2023-08-06T05:11:38;58.06;46.80;75.66;;
47109;Laerm;32856;51.422;6.794;2023-08-06T05:14:05;58.53;44.73;77.85;;
47109;Laerm;32856;51.422;6.794;2023-08-06T05:16:33;60.51;45.45;74.73;;
47109;Laerm;32856;51.422;6.794;2023-08-06T05:19:00;58.84;45.11;75.51;;
47109;Laerm;32856;51.422;6.794;2023-08-06T05:21:29;60.18;44.47;76.41;;
47109;Laerm;32856;51.422;6.794;2023-08-06T05:23:56;60.73;44.83;76.47;;
47109;Laerm;32856;51.422;6.794;2023-08-06T05:26:23;55.42;45.48;71.23;;
47109;Laerm;32856;51.422;6.794;2023-08-06T05:28:51;60.73;47.72;77.30;;
47109;Laerm;32856;51.422;6.794;2023-08-06T05:31:18;55.51;44.97;72.51;;
47109;Laerm;32856;51.422;6.794;2023-08-06T05:33:45;54.03;44.83;70.01;;
47109;Laerm;32856;51.422;6.794;2023-08-06T05:36:13;54.33;45.51;73.13;;
47109;Laerm;32856;51.422;6.794;2023-08-06T05:38:41;57.46;46.87;74.33;;
47109;Laerm;32856;51.422;6.794;2023-08-06T05:41:09;50.00;46.23;56.54;;
47109;Laerm;32856;51.422;6.794;2023-08-06T05:43:36;59.73;46.66;74.66;;
47109;Laerm;32856;51.422;6.794;2023-08-06T05:46:03;54.16;47.22;67.92;;
47109;Laerm;32856;51.422;6.794;2023-08-06T05:48:31;53.72;45.63;70.45;;
47109;Laerm;32856;51.422;6.794;2023-08-06T05:50:58;61.11;46.88;75.70;;
47109;Laerm;32856;51.422;6.794;2023-08-06T05:53:26;54.86;44.39;71.49;;
47109;Laerm;32856;51.422;6.794;2023-08-06T05:55:54;49.24;46.15;52.55;;
47109;Laerm;32856;51.422;6.794;2023-08-06T05:58:22;53.93;46.55;70.58;;
47109;Laerm;32856;51.422;6.794;2023-08-06T06:00:51;57.27;47.30;73.48;;
47109;Laerm;32856;51.422;6.794;2023-08-06T06:03:19;57.86;46.52;74.89;;
47109;Laerm;32856;51.422;6.794;2023-08-06T06:05:46;59.14;45.89;73.19;;
47109;Laerm;32856;51.422;6.794;2023-08-06T06:08:14;58.91;46.73;74.89;;
47109;Laerm;32856;51.422;6.794;2023-08-06T06:10:41;60.15;45.45;80.37;;
47109;Laerm;32856;51.422;6.794;2023-08-06T06:13:10;55.70;46.62;74.49;;
47109;Laerm;32856;51.422;6.794;2023-08-06T06:15:37;55.64;44.58;73.48;;
47109;Laerm;32856;51.422;6.794;2023-08-06T06:18:05;55.78;46.64;70.61;;
47109;Laerm;32856;51.422;6.794;2023-08-06T06:20:32;59.39;45.01;75.10;;
47109;Laerm;32856;51.422;6.794;2023-08-06T06:23:00;60.63;46.66;77.68;;
47109;Laerm;32856;51.422;6.794;2023-08-06T06:25:27;55.62;45.99;74.36;;
47109;Laerm;32856;51.422;6.794;2023-08-06T06:27:54;61.29;43.90;78.73;;
47109;Laerm;32856;51.422;6.794;2023-08-06T06:30:23;58.91;45.63;75.89;;
47109;Laerm;32856;51.422;6.794;2023-08-06T06:32:50;59.48;47.41;73.03;;
47109;Laerm;32856;51.422;6.794;2023-08-06T06:35:18;59.29;47.44;73.64;;
47109;Laerm;32856;51.422;6.794;2023-08-06T06:37:46;59.18;47.30;77.26;;
47109;Laerm;32856;51.422;6.794;2023-08-06T06:40:13;61.91;48.18;78.07;;
47109;Laerm;32856;51.422;6.794;2023-08-06T06:42:41;60.95;48.73;76.84;;
47109;Laerm;32856;51.422;6.794;2023-08-06T06:45:09;54.57;47.42;70.36;;
47109;Laerm;32856;51.422;6.794;2023-08-06T06:47:37;59.03;46.59;74.29;;
47109;Laerm;32856;51.422;6.794;2023-08-06T06:50:05;59.70;47.22;75.20;;
47109;Laerm;32856;51.422;6.794;2023-08-06T06:52:33;58.54;47.14;73.97;;
47109;Laerm;32856;51.422;6.794;2023-08-06T06:55:00;61.40;47.30;77.05;;
47109;Laerm;32856;51.422;6.794;2023-08-06T06:57:27;59.08;47.12;73.16;;
47109;Laerm;32856;51.422;6.794;2023-08-06T06:59:55;61.52;47.46;75.94;;
47109;Laerm;32856;51.422;6.794;2023-08-06T07:02:22;58.19;48.29;74.75;;
47109;Laerm;32856;51.422;6.794;2023-08-06T07:04:51;59.67;46.69;75.01;;
47109;Laerm;32856;51.422;6.794;2023-08-06T07:07:18;61.52;47.52;76.17;;
47109;Laerm;32856;51.422;6.794;2023-08-06T07:09:45;58.20;48.15;71.61;;
47109;Laerm;32856;51.422;6.794;2023-08-06T07:12:13;60.82;45.97;76.61;;
47109;Laerm;32856;51.422;6.794;2023-08-06T07:14:40;60.74;48.05;77.21;;
47109;Laerm;32856;51.422;6.794;2023-08-06T07:17:07;62.30;47.65;74.80;;
47109;Laerm;32856;51.422;6.794;2023-08-06T07:19:35;60.49;47.48;74.90;;
47109;Laerm;32856;51.422;6.794;2023-08-06T07:22:04;59.87;48.21;76.60;;
47109;Laerm;32856;51.422;6.794;2023-08-06T07:24:31;61.72;45.97;73.90;;
47109;Laerm;32856;51.422;6.794;2023-08-06T07:26:59;63.39;49.71;77.37;;
47109;Laerm;32856;51.422;6.794;2023-08-06T07:29:26;60.20;46.71;75.37;;
47109;Laerm;32856;51.422;6.794;2023-08-06T07:31:53;61.52;47.20;75.26;;
47109;Laerm;32856;51.422;6.794;2023-08-06T07:34:21;61.30;48.61;74.05;;
47109;Laerm;32856;51.422;6.794;2023-08-06T07:36:49;63.14;49.82;76.26;;
47109;Laerm;32856;51.422;6.794;2023-08-06T07:39:17;61.55;47.38;75.79;;
47109;Laerm;32856;51.422;6.794;2023-08-06T07:41:45;62.52;47.72;75.48;;
47109;Laerm;32856;51.422;6.794;2023-08-06T07:44:12;64.09;47.10;76.90;;
47109;Laerm;32856;51.422;6.794;2023-08-06T07:46:40;61.12;47.48;76.27;;
47109;Laerm;32856;51.422;6.794;2023-08-06T07:49:08;60.10;46.57;73.85;;
47109;Laerm;32856;51.422;6.794;2023-08-06T07:51:37;61.20;48.05;73.24;;
47109;Laerm;32856;51.422;6.794;2023-08-06T07:54:05;63.74;46.76;76.13;;
47109;Laerm;32856;51.422;6.794;2023-08-06T07:56:33;61.28;47.42;75.56;;
47109;Laerm;32856;51.422;6.794;2023-08-06T07:59:02;61.88;45.57;76.60;;
47109;Laerm;32856;51.422;6.794;2023-08-06T08:01:29;62.29;47.72;75.13;;
47109;Laerm;32856;51.422;6.794;2023-08-06T08:03:56;64.87;46.82;83.18;;
47109;Laerm;32856;51.422;6.794;2023-08-06T08:06:24;58.66;45.86;73.45;;
47109;Laerm;32856;51.422;6.794;2023-08-06T08:08:51;62.24;44.43;74.26;;
47109;Laerm;32856;51.422;6.794;2023-08-06T08:11:20;61.77;45.45;73.99;;
47109;Laerm;32856;51.422;6.794;2023-08-06T08:13:49;63.06;45.57;76.24;;
47109;Laerm;32856;51.422;6.794;2023-08-06T08:16:16;61.98;47.70;73.70;;
47109;Laerm;32856;51.422;6.794;2023-08-06T08:18:43;61.71;45.66;74.32;;
47109;Laerm;32856;51.422;6.794;2023-08-06T08:21:11;62.42;47.18;74.36;;
47109;Laerm;32856;51.422;6.794;2023-08-06T08:23:38;63.77;46.59;76.87;;
47109;Laerm;32856;51.422;6.794;2023-08-06T08:26:07;64.64;47.74;77.03;;
47109;Laerm;32856;51.422;6.794;2023-08-06T08:28:35;62.48;46.93;73.47;;
47109;Laerm;32856;51.422;6.794;2023-08-06T08:31:03;63.81;47.24;76.23;;
47109;Laerm;32856;51.422;6.794;2023-08-06T08:33:34;60.50;45.30;75.76;;
47109;Laerm;32856;51.422;6.794;2023-08-06T08:36:02;63.31;46.20;74.42;;
47109;Laerm;32856;51.422;6.794;2023-08-06T08:38:30;62.40;45.99;75.29;;
47109;Laerm;32856;51.422;6.794;2023-08-06T08:40:58;65.49;45.30;79.92;;
47109;Laerm;32856;51.422;6.794;2023-08-06T08:43:25;62.88;45.66;76.93;;
47109;Laerm;32856;51.422;6.794;2023-08-06T08:45:54;62.06;45.83;73.95;;
47109;Laerm;32856;51.422;6.794;2023-08-06T08:48:26;63.48;45.91;75.98;;
47109;Laerm;32856;51.422;6.794;2023-08-06T08:50:55;63.95;46.59;75.11;;
47109;Laerm;32856;51.422;6.794;2023-08-06T08:53:23;65.50;46.73;76.85;;
47109;Laerm;32856;51.422;6.794;2023-08-06T08:55:51;64.76;46.38;79.51;;
47109;Laerm;32856;51.422;6.794;2023-08-06T08:58:20;63.04;45.20;74.94;;
47109;Laerm;32856;51.422;6.794;2023-08-06T09:00:47;62.82;46.05;76.00;;
47109;Laerm;32856;51.422;6.794;2023-08-06T09:03:15;62.20;45.48;75.19;;
47109;Laerm;32856;51.422;6.794;2023-08-06T09:05:45;62.21;45.54;76.90;;
47109;Laerm;32856;51.422;6.794;2023-08-06T09:08:17;63.36;46.80;73.48;;
47109;Laerm;32856;51.422;6.794;2023-08-06T09:10:45;62.90;45.57;75.38;;
47109;Laerm;32856;51.422;6.794;2023-08-06T09:13:15;64.93;46.25;79.17;;
47109;Laerm;32856;51.422;6.794;2023-08-06T09:15:43;62.34;47.76;76.76;;
47109;Laerm;32856;51.422;6.794;2023-08-06T09:18:11;61.47;46.69;75.77;;
47109;Laerm;32856;51.422;6.794;2023-08-06T09:20:39;60.15;46.78;75.58;;
47109;Laerm;32856;51.422;6.794;2023-08-06T09:23:08;61.82;46.78;77.06;;
47109;Laerm;32856;51.422;6.794;2023-08-06T09:25:38;61.24;46.35;72.90;;
47109;Laerm;32856;51.422;6.794;2023-08-06T09:28:06;65.80;46.20;76.63;;
47109;Laerm;32856;51.422;6.794;2023-08-06T09:30:36;61.45;45.54;76.14;;
47109;Laerm;32856;51.422;6.794;2023-08-06T09:33:04;61.66;46.25;75.43;;
47109;Laerm;32856;51.422;6.794;2023-08-06T09:35:36;65.10;46.69;76.46;;
47109;Laerm;32856;51.422;6.794;2023-08-06T09:38:07;65.22;47.24;80.47;;
47109;Laerm;32856;51.422;6.794;2023-08-06T09:40:37;63.33;45.77;74.62;;
47109;Laerm;32856;51.422;6.794;2023-08-06T09:43:05;62.07;46.76;76.73;;
47109;Laerm;32856;51.422;6.794;2023-08-06T09:45:33;60.88;45.89;74.49;;
47109;Laerm;32856;51.422;6.794;2023-08-06T09:48:02;63.70;46.97;76.01;;
47109;Laerm;32856;51.422;6.794;2023-08-06T09:50:31;66.19;47.77;80.95;;
47109;Laerm;32856;51.422;6.794;2023-08-06T09:52:59;65.51;46.62;83.34;;
47109;Laerm;32856;51.422;6.794;2023-08-06T09:55:27;64.75;46.08;75.81;;
47109;Laerm;32856;51.422;6.794;2023-08-06T09:57:56;63.00;44.51;75.15;;
47109;Laerm;32856;51.422;6.794;2023-08-06T10:00:25;63.69;46.33;75.87;;
47109;Laerm;32856;51.422;6.794;2023-08-06T10:02:54;64.72;46.35;77.17;;
47109;Laerm;32856;51.422;6.794;2023-08-06T10:05:22;62.05;46.71;74.23;;
47109;Laerm;32856;51.422;6.794;2023-08-06T10:07:54;64.78;48.05;76.86;;
47109;Laerm;32856;51.422;6.794;2023-08-06T10:10:22;63.76;47.40;76.53;;
47109;Laerm;32856;51.422;6.794;2023-08-06T10:12:51;60.05;46.73;73.24;;
47109;Laerm;32856;51.422;6.794;2023-08-06T10:15:22;63.31;46.78;84.36;;
47109;Laerm;32856;51.422;6.794;2023-08-06T10:17:51;60.50;45.91;73.79;;
47109;Laerm;32856;51.422;6.794;2023-08-06T10:20:20;62.43;46.02;75.49;;
47109;Laerm;32856;51.422;6.794;2023-08-06T10:22:59;62.52;46.66;74.47;;
47109;Laerm;32856;51.422;6.794;2023-08-06T10:25:28;65.22;51.08;75.83;;
47109;Laerm;32856;51.422;6.794;2023-08-06T10:27:57;63.31;47.68;83.12;;
47109;Laerm;32856;51.422;6.794;2023-08-06T10:30:27;60.56;46.15;72.44;;
47109;Laerm;32856;51.422;6.794;2023-08-06T10:32:55;65.76;47.38;82.06;;
47109;Laerm;32856;51.422;6.794;2023-08-06T10:35:30;62.83;48.37;73.90;;
47109;Laerm;32856;51.422;6.794;2023-08-06T10:37:59;64.25;46.48;76.22;;
47109;Laerm;32856;51.422;6.794;2023-08-06T10:40:27;64.04;47.04;81.24;;
47109;Laerm;32856;51.422;6.794;2023-08-06T10:42:55;64.32;47.55;79.71;;
47109;Laerm;32856;51.422;6.794;2023-08-06T10:45:27;64.55;47.26;76.62;;
47109;Laerm;32856;51.422;6.794;2023-08-06T10:47:56;62.42;47.55;79.25;;
47109;Laerm;32856;51.422;6.794;2023-08-06T10:50:24;64.85;48.29;79.75;;
47109;Laerm;32856;51.422;6.794;2023-08-06T10:52:52;63.13;50.70;76.43;;
47109;Laerm;32856;51.422;6.794;2023-08-06T10:55:23;63.86;46.28;76.66;;
47109;Laerm;32856;51.422;6.794;2023-08-06T10:57:52;62.97;49.56;76.39;;
47109;Laerm;32856;51.422;6.794;2023-08-06T11:00:20;63.66;48.48;75.34;;
47109;Laerm;32856;51.422;6.794;2023-08-06T11:02:50;63.68;49.59;74.52;;
47109;Laerm;32856;51.422;6.794;2023-08-06T11:05:18;64.26;50.19;80.05;;
47109;Laerm;32856;51.422;6.794;2023-08-06T11:07:46;61.09;47.79;73.79;;
47109;Laerm;32856;51.422;6.794;2023-08-06T11:10:15;64.50;48.87;76.36;;
47109;Laerm;32856;51.422;6.794;2023-08-06T11:12:42;64.43;48.85;75.14;;
47109;Laerm;32856;51.422;6.794;2023-08-06T11:15:10;61.36;47.40;77.63;;
47109;Laerm;32856;51.422;6.794;2023-08-06T11:17:39;65.05;48.03;82.76;;
47109;Laerm;32856;51.422;6.794;2023-08-06T11:20:08;64.80;52.40;75.58;;
47109;Laerm;32856;51.422;6.794;2023-08-06T11:22:36;67.44;55.92;81.65;;
47109;Laerm;32856;51.422;6.794;2023-08-06T11:25:05;68.79;55.12;78.86;;
47109;Laerm;32856;51.422;6.794;2023-08-06T11:27:32;68.31;57.90;78.53;;
47109;Laerm;32856;51.422;6.794;2023-08-06T11:30:00;68.77;57.92;79.41;;
47109;Laerm;32856;51.422;6.794;2023-08-06T11:32:27;68.75;52.60;84.71;;
47109;Laerm;32856;51.422;6.794;2023-08-06T11:34:55;69.10;49.79;79.65;;
47109;Laerm;32856;51.422;6.794;2023-08-06T11:37:24;69.07;49.05;79.80;;
47109;Laerm;32856;51.422;6.794;2023-08-06T11:39:52;69.35;52.56;81.01;;
47109;Laerm;32856;51.422;6.794;2023-08-06T11:42:19;69.42;56.12;80.52;;
47109;Laerm;32856;51.422;6.794;2023-08-06T11:44:47;67.42;56.41;78.98;;
47109;Laerm;32856;51.422;6.794;2023-08-06T11:47:15;69.90;53.71;81.07;;
47109;Laerm;32856;51.422;6.794;2023-08-06T11:49:43;67.17;50.95;81.86;;
47109;Laerm;32856;51.422;6.794;2023-08-06T11:52:15;68.92;54.77;79.99;;
47109;Laerm;32856;51.422;6.794;2023-08-06T11:54:46;69.23;54.41;79.34;;
47109;Laerm;32856;51.422;6.794;2023-08-06T11:57:15;68.74;51.39;80.10;;
47109;Laerm;32856;51.422;6.794;2023-08-06T11:59:43;70.30;52.03;80.51;;
47109;Laerm;32856;51.422;6.794;2023-08-06T12:02:11;68.69;50.46;81.03;;
47109;Laerm;32856;51.422;6.794;2023-08-06T12:04:57;69.61;51.80;80.73;;
47109;Laerm;32856;51.422;6.794;2023-08-06T12:07:25;69.01;49.25;83.32;;
47109;Laerm;32856;51.422;6.794;2023-08-06T12:09:54;68.27;49.28;80.85;;
47109;Laerm;32856;51.422;6.794;2023-08-06T12:12:22;69.54;50.98;80.41;;
47109;Laerm;32856;51.422;6.794;2023-08-06T12:14:49;67.75;53.01;80.17;;
47109;Laerm;32856;51.422;6.794;2023-08-06T12:17:16;67.50;53.15;78.07;;
47109;Laerm;32856;51.422;6.794;2023-08-06T12:19:44;67.33;49.94;78.86;;
47109;Laerm;32856;51.422;6.794;2023-08-06T12:22:12;66.18;50.00;79.19;;
47109;Laerm;32856;51.422;6.794;2023-08-06T12:24:40;68.65;52.25;80.69;;
47109;Laerm;32856;51.422;6.794;2023-08-06T12:27:09;63.18;47.14;76.32;;
47109;Laerm;32856;51.422;6.794;2023-08-06T12:29:40;65.53;46.80;76.88;;
47109;Laerm;32856;51.422;6.794;2023-08-06T12:32:08;65.54;49.40;80.27;;
47109;Laerm;32856;51.422;6.794;2023-08-06T12:34:35;65.89;49.14;79.97;;
47109;Laerm;32856;51.422;6.794;2023-08-06T12:37:16;67.07;51.27;78.99;;
47109;Laerm;32856;51.422;6.794;2023-08-06T12:39:44;67.70;50.00;79.67;;
47109;Laerm;32856;51.422;6.794;2023-08-06T12:42:13;65.47;49.21;76.92;;
47109;Laerm;32856;51.422;6.794;2023-08-06T12:44:40;64.94;48.34;79.45;;
47109;Laerm;32856;51.422;6.794;2023-08-06T12:47:07;67.80;53.02;77.86;;
47109;Laerm;32856;51.422;6.794;2023-08-06T12:49:35;65.48;49.34;78.32;;
47109;Laerm;32856;51.422;6.794;2023-08-06T12:52:03;63.95;46.25;77.40;;
47109;Laerm;32856;51.422;6.794;2023-08-06T12:54:32;65.40;50.17;76.36;;
47109;Laerm;32856;51.422;6.794;2023-08-06T12:57:04;62.61;46.95;78.02;;
47109;Laerm;32856;51.422;6.794;2023-08-06T12:59:33;66.56;47.44;79.65;;
47109;Laerm;32856;51.422;6.794;2023-08-06T13:02:02;65.82;48.85;76.78;;
47109;Laerm;32856;51.422;6.794;2023-08-06T13:04:30;67.86;49.74;80.71;;
47109;Laerm;32856;51.422;6.794;2023-08-06T13:07:00;66.22;49.07;79.61;;
47109;Laerm;32856;51.422;6.794;2023-08-06T13:09:27;67.15;50.98;78.26;;
47109;Laerm;32856;51.422;6.794;2023-08-06T13:11:58;66.04;50.57;79.78;;
47109;Laerm;32856;51.422;6.794;2023-08-06T13:14:26;62.91;48.70;75.44;;
47109;Laerm;32856;51.422;6.794;2023-08-06T13:16:55;65.90;48.28;76.22;;
47109;Laerm;32856;51.422;6.794;2023-08-06T13:19:23;62.09;47.36;75.50;;
47109;Laerm;32856;51.422;6.794;2023-08-06T13:22:00;62.94;47.59;77.47;;
47109;Laerm;32856;51.422;6.794;2023-08-06T13:24:29;65.47;51.06;77.90;;
47109;Laerm;32856;51.422;6.794;2023-08-06T13:26:56;66.66;53.16;80.88;;
47109;Laerm;32856;51.422;6.794;2023-08-06T13:29:24;65.33;49.91;80.82;;
47109;Laerm;32856;51.422;6.794;2023-08-06T13:31:52;63.13;48.05;75.64;;
47109;Laerm;32856;51.422;6.794;2023-08-06T13:34:20;64.77;52.33;78.90;;
47109;Laerm;32856;51.422;6.794;2023-08-06T13:36:48;66.07;49.59;81.67;;
47109;Laerm;32856;51.422;6.794;2023-08-06T13:39:16;64.37;48.45;77.56;;
47109;Laerm;32856;51.422;6.794;2023-08-06T13:41:43;66.03;50.77;78.54;;
47109;Laerm;32856;51.422;6.794;2023-08-06T13:44:11;65.27;51.25;76.21;;
47109;Laerm;32856;51.422;6.794;2023-08-06T13:46:40;59.81;48.94;73.81;;
47109;Laerm;32856;51.422;6.794;2023-08-06T13:49:08;62.72;48.78;75.25;;